Time;durP1;ratioP1;P1;durP2;ratioP2;P2;SDS_P1;SDS_P2;PMS_P1;PMS_P2;Temp;Humidity;BMP_temperature;BMP_pressure;BME280_temperature;BME280_humidity;BME280_pressure;Samples;Min_cycle;Max_cycle;Signal;HPM_P1;HPM_P2
2021/07/17 00:00:48;;;;;;;32.83;13.23;;;18.00;1.00;;;;;;5112384;28;20626;-64
2021/07/17 00:03:15;;;;;;;33.03;14.00;;;18.00;1.00;;;;;;5112219;28;20694;-64
2021/07/17 00:05:42;;;;;;;36.57;14.40;;;17.90;1.00;;;;;;5112448;28;20204;-64
2021/07/17 00:08:09;;;;;;;35.33;14.47;;;17.90;1.00;;;;;;5112226;28;20227;-64
2021/07/17 00:10:40;;;;;;;32.37;13.80;;;18.00;1.00;;;;;;5112426;28;20207;-64
2021/07/17 00:13:07;;;;;;;35.00;14.40;;;18.10;1.00;;;;;;5112493;28;20203;-64
2021/07/17 00:15:36;;;;;;;25.90;13.37;;;18.10;1.00;;;;;;5112122;28;20217;-64
2021/07/17 00:18:03;;;;;;;38.50;14.83;;;18.10;1.00;;;;;;5112281;28;20219;-64
2021/07/17 00:20:30;;;;;;;32.00;13.83;;;18.10;1.00;;;;;;5112473;28;20258;-64
2021/07/17 00:22:57;;;;;;;35.63;15.13;;;18.00;56.40;;;;;;5112188;28;20666;-64
2021/07/17 00:25:24;;;;;;;31.37;14.70;;;17.90;99.90;;;;;;5112143;28;20212;-64
2021/07/17 00:27:51;;;;;;;33.23;14.77;;;17.90;99.90;;;;;;5111903;28;20228;-64
2021/07/17 00:30:18;;;;;;;32.57;14.80;;;17.90;99.90;;;;;;5111985;28;20260;-64
2021/07/17 00:32:47;;;;;;;34.10;15.63;;;17.90;99.90;;;;;;5112390;28;20208;-64
2021/07/17 00:35:14;;;;;;;37.20;16.43;;;17.80;99.90;;;;;;5111915;28;20605;-65
2021/07/17 00:37:41;;;;;;;37.23;15.27;;;17.70;1.00;;;;;;5112022;28;20235;-64
2021/07/17 00:40:09;;;;;;;34.47;15.50;;;17.80;90.40;;;;;;5111937;28;20720;-64
2021/07/17 00:42:36;;;;;;;36.20;15.50;;;17.80;1.00;;;;;;5112124;28;20207;-64
2021/07/17 00:45:03;;;;;;;32.93;15.47;;;17.80;44.20;;;;;;5111945;28;20208;-64
2021/07/17 00:47:31;;;;;;;34.07;16.07;;;17.80;99.90;;;;;;5112016;28;20308;-64
2021/07/17 00:49:59;;;;;;;32.00;17.00;;;17.60;99.90;;;;;;5111944;28;20623;-64
2021/07/17 00:52:26;;;;;;;37.87;16.40;;;17.50;99.90;;;;;;5112010;28;20260;-64
2021/07/17 00:54:53;;;;;;;37.47;16.70;;;17.50;99.90;;;;;;5111697;28;20234;-64
2021/07/17 00:57:22;;;;;;;31.97;16.03;;;17.50;99.90;;;;;;5111712;28;20273;-64
2021/07/17 00:59:51;;;;;;;32.53;16.50;;;17.50;99.90;;;;;;5111835;28;20207;-65
2021/07/17 01:02:19;;;;;;;33.53;16.23;;;17.50;99.90;;;;;;5111891;28;20203;-64
2021/07/17 01:04:47;;;;;;;37.53;16.07;;;17.60;99.90;;;;;;5111810;28;20203;-64
2021/07/17 01:07:15;;;;;;;34.70;16.77;;;17.60;99.90;;;;;;5111616;28;20281;-63
2021/07/17 01:09:42;;;;;;;35.07;15.80;;;17.60;99.90;;;;;;5111747;28;20257;-64
2021/07/17 01:12:08;;;;;;;32.90;15.40;;;17.60;78.60;;;;;;5114999;28;20895;-64
2021/07/17 01:14:35;;;;;;;32.97;15.23;;;17.60;99.90;;;;;;5115462;28;20208;-64
2021/07/17 01:17:02;;;;;;;38.03;15.90;;;17.60;58.00;;;;;;5115423;28;20219;-63
2021/07/17 01:19:29;;;;;;;35.87;15.27;;;17.50;99.90;;;;;;5115410;28;20261;-64
2021/07/17 01:21:57;;;;;;;31.83;14.97;;;17.50;99.90;;;;;;5115318;28;20689;-64
2021/07/17 01:24:24;;;;;;;34.70;15.73;;;17.50;99.90;;;;;;5115061;28;20253;-64
2021/07/17 01:26:52;;;;;;;34.93;16.23;;;17.50;99.90;;;;;;5115358;28;20268;-64
2021/07/17 01:29:18;;;;;;;34.07;16.27;;;17.50;99.90;;;;;;5115223;28;20203;-63
2021/07/17 01:31:45;;;;;;;34.77;16.33;;;17.40;1.00;;;;;;5115305;28;20571;-64
2021/07/17 01:34:12;;;;;;;31.80;16.47;;;17.30;99.90;;;;;;5114955;28;20203;-64
2021/07/17 01:36:40;;;;;;;42.70;17.27;;;17.30;99.90;;;;;;5115001;28;20257;-64
2021/07/17 01:39:08;;;;;;;29.07;15.87;;;17.30;99.90;;;;;;5114812;28;20203;-64
2021/07/17 01:41:35;;;;;;;33.40;16.23;;;17.30;1.00;;;;;;5115209;28;20253;-64
2021/07/17 01:44:02;;;;;;;31.53;15.00;;;17.30;1.00;;;;;;5114827;28;20211;-64
2021/07/17 01:46:29;;;;;;;40.63;15.97;;;17.30;1.00;;;;;;5115068;28;20657;-64
2021/07/17 01:48:57;;;;;;;31.90;15.40;;;17.40;99.90;;;;;;5114719;28;20651;-64
2021/07/17 01:51:24;;;;;;;35.97;15.97;;;17.40;99.90;;;;;;5114599;28;20207;-64
2021/07/17 01:53:55;;;;;;;34.83;15.93;;;17.40;99.90;;;;;;5114786;28;20204;-65
2021/07/17 01:56:25;;;;;;;34.60;15.67;;;17.30;40.40;;;;;;5114773;28;20642;-64
2021/07/17 01:58:51;;;;;;;39.70;16.70;;;17.30;99.90;;;;;;5114636;28;20222;-64
2021/07/17 02:01:18;;;;;;;34.63;15.57;;;17.30;99.90;;;;;;5114850;28;20204;-64
2021/07/17 02:03:45;;;;;;;33.10;15.43;;;17.40;99.90;;;;;;5114349;28;20208;-64
2021/07/17 02:06:12;;;;;;;28.87;15.03;;;17.40;11.70;;;;;;5114323;28;20249;-64
2021/07/17 02:08:40;;;;;;;32.77;14.63;;;17.40;1.00;;;;;;5114787;28;20223;-64
2021/07/17 02:11:07;;;;;;;36.67;15.37;;;17.40;1.00;;;;;;5114558;28;20239;-64
2021/07/17 02:13:35;;;;;;;35.70;14.37;;;17.30;1.00;;;;;;5114345;28;20207;-64
2021/07/17 02:16:03;;;;;;;29.07;14.27;;;17.40;99.90;;;;;;5114225;28;20622;-64
2021/07/17 02:18:33;;;;;;;28.13;13.97;;;17.40;99.90;;;;;;5114407;28;20246;-64
2021/07/17 02:21:01;;;;;;;40.23;14.90;;;17.40;99.90;;;;;;5114392;28;20261;-64
2021/07/17 02:23:28;;;;;;;31.93;14.40;;;17.40;99.90;;;;;;5114040;28;20203;-62
2021/07/17 02:25:55;;;;;;;32.00;14.80;;;17.20;99.90;;;;;;5114350;28;20348;-64
2021/07/17 02:28:22;;;;;;;37.33;14.43;;;17.20;99.90;;;;;;5113898;28;20583;-63
2021/07/17 02:30:51;;;;;;;32.83;14.30;;;17.30;1.00;;;;;;5114298;28;20200;-64
2021/07/17 02:33:18;;;;;;;31.10;13.73;;;17.30;99.90;;;;;;5113698;28;20682;-64
2021/07/17 02:35:45;;;;;;;28.73;13.80;;;17.40;52.80;;;;;;5113857;28;20672;-64
2021/07/17 02:38:12;;;;;;;38.17;15.37;;;17.40;86.40;;;;;;5113900;28;20235;-64
2021/07/17 02:40:39;;;;;;;31.43;14.50;;;17.40;1.00;;;;;;5114108;28;20200;-64
2021/07/17 02:43:06;;;;;;;33.07;14.70;;;17.40;66.40;;;;;;5113597;28;20693;-63
2021/07/17 02:45:34;;;;;;;31.03;14.13;;;17.30;99.90;;;;;;5113534;28;20211;-64
2021/07/17 02:48:02;;;;;;;30.67;14.53;;;17.30;78.00;;;;;;5113790;28;20235;-64
2021/07/17 02:50:29;;;;;;;22.93;13.83;;;17.20;1.00;;;;;;5113801;28;20563;-64
2021/07/17 02:52:55;;;;;;;29.10;13.37;;;17.20;1.00;;;;;;5113748;28;20207;-64
2021/07/17 02:55:22;;;;;;;24.63;13.37;;;17.10;19.30;;;;;;5113363;28;20282;-64
2021/07/17 02:57:48;;;;;;;34.40;14.37;;;17.20;1.00;;;;;;5113315;28;20707;-63
2021/07/17 03:00:16;;;;;;;33.40;13.50;;;17.10;99.90;;;;;;5113082;28;20200;-64
2021/07/17 03:02:43;;;;;;;32.30;13.73;;;17.10;99.90;;;;;;5113517;28;20208;-64
2021/07/17 03:05:12;;;;;;;38.03;14.17;;;17.10;99.90;;;;;;5113197;28;20207;-64
2021/07/17 03:07:39;;;;;;;30.23;14.37;;;17.10;99.90;;;;;;5113139;28;20280;-64
2021/07/17 03:10:06;;;;;;;34.47;14.77;;;17.00;99.90;;;;;;5113049;28;20200;-64
2021/07/17 03:12:33;;;;;;;31.80;15.10;;;17.00;99.90;;;;;;5113024;28;20204;-64
2021/07/17 03:15:00;;;;;;;37.77;16.03;;;17.00;99.90;;;;;;5113012;28;20748;-64
2021/07/17 03:17:26;;;;;;;30.93;15.17;;;17.00;1.00;;;;;;5113094;28;20276;-64
2021/07/17 03:19:53;;;;;;;30.50;14.43;;;17.00;99.90;;;;;;5113069;28;20199;-64
2021/07/17 03:22:22;;;;;;;32.70;16.00;;;17.00;99.90;;;;;;5113022;28;20261;-64
2021/07/17 03:24:49;;;;;;;31.53;15.13;;;17.00;99.90;;;;;;5112851;28;20200;-64
2021/07/17 03:27:15;;;;;;;30.13;14.80;;;16.90;99.90;;;;;;5112469;28;20723;-64
2021/07/17 03:29:42;;;;;;;28.67;14.33;;;17.00;1.00;;;;;;5113177;28;20207;-64
2021/07/17 03:32:09;;;;;;;29.47;14.57;;;17.00;99.90;;;;;;5112897;28;20208;-64
2021/07/17 03:34:35;;;;;;;34.40;16.70;;;17.00;1.00;;;;;;5112232;28;20204;-63
2021/07/17 03:37:03;;;;;;;32.37;16.23;;;16.90;1.00;;;;;;5112620;28;20269;-63
2021/07/17 03:39:31;;;;;;;31.10;15.03;;;16.90;1.00;;;;;;5112734;28;20207;-63
2021/07/17 03:41:57;;;;;;;29.80;14.97;;;16.90;1.00;;;;;;5112443;28;20207;-63
2021/07/17 03:44:27;;;;;;;30.50;15.40;;;16.90;99.90;;;;;;5112607;28;20256;-64
2021/07/17 03:46:53;;;;;;;36.33;15.30;;;16.90;99.90;;;;;;5112766;28;20286;-65
2021/07/17 03:49:20;;;;;;;28.27;14.87;;;16.80;1.00;;;;;;5112498;28;20268;-63
2021/07/17 03:51:46;;;;;;;35.00;15.20;;;16.80;99.90;;;;;;5112547;28;20207;-64
2021/07/17 03:54:13;;;;;;;28.17;14.40;;;16.90;1.00;;;;;;5112549;28;20557;-64
2021/07/17 03:56:41;;;;;;;26.87;12.87;;;16.80;1.00;;;;;;5112363;28;20268;-63
2021/07/17 03:59:08;;;;;;;23.37;13.20;;;16.80;99.90;;;;;;5112762;28;20695;-63
2021/07/17 04:01:34;;;;;;;30.37;14.07;;;16.80;99.90;;;;;;5112598;28;20207;-63
2021/07/17 04:04:01;;;;;;;24.53;13.60;;;16.80;99.90;;;;;;5112220;28;20212;-64
2021/07/17 04:06:27;;;;;;;25.87;13.17;;;16.80;99.90;;;;;;5112330;28;20208;-64
2021/07/17 04:08:54;;;;;;;26.37;13.67;;;16.80;1.00;;;;;;5112152;28;20646;-63
2021/07/17 04:11:21;;;;;;;33.40;14.97;;;16.80;1.00;;;;;;5112191;28;20609;-64
2021/07/17 04:13:49;;;;;;;27.97;14.20;;;16.80;1.00;;;;;;5112116;28;20207;-64
2021/07/17 04:16:15;;;;;;;27.03;14.23;;;16.80;1.00;;;;;;5112350;28;20207;-64
2021/07/17 04:18:42;;;;;;;34.17;15.23;;;16.90;1.00;;;;;;5112376;28;20215;-64
2021/07/17 04:21:11;;;;;;;28.77;14.73;;;16.90;1.00;;;;;;5112240;28;20203;-62
2021/07/17 04:23:38;;;;;;;24.40;14.37;;;16.90;99.90;;;;;;5112026;28;20207;-64
2021/07/17 04:26:05;;;;;;;25.77;12.90;;;17.00;1.00;;;;;;5112250;28;20257;-64
2021/07/17 04:28:31;;;;;;;28.13;14.93;;;17.00;1.00;;;;;;5112237;28;20302;-64
2021/07/17 04:30:59;;;;;;;30.50;14.47;;;17.00;1.00;;;;;;5112184;28;20554;-64
2021/07/17 04:33:26;;;;;;;30.00;14.13;;;17.00;1.00;;;;;;5112020;28;20204;-64
2021/07/17 04:35:53;;;;;;;25.07;13.93;;;17.10;99.90;;;;;;5112150;28;20265;-62
2021/07/17 04:38:19;;;;;;;26.53;14.27;;;17.10;1.00;;;;;;5111833;28;20715;-63
2021/07/17 04:40:46;;;;;;;27.63;14.50;;;17.00;1.00;;;;;;5112316;28;20203;-64
2021/07/17 04:43:13;;;;;;;32.40;15.67;;;17.00;99.90;;;;;;5112172;28;20332;-64
2021/07/17 04:45:39;;;;;;;27.80;15.07;;;17.00;99.90;;;;;;5112918;28;20207;-63
2021/07/17 04:48:07;;;;;;;30.80;15.33;;;17.00;1.00;;;;;;5115811;28;20273;-64
2021/07/17 04:50:37;;;;;;;34.00;15.23;;;16.90;1.00;;;;;;5116084;28;20203;-64
2021/07/17 04:53:04;;;;;;;35.43;15.80;;;16.90;5.70;;;;;;5115767;28;20736;-64
2021/07/17 04:55:31;;;;;;;35.00;16.07;;;16.90;1.00;;;;;;5115860;28;20204;-64
2021/07/17 04:57:57;;;;;;;31.57;15.40;;;16.90;1.00;;;;;;5115767;28;20265;-63
2021/07/17 05:00:24;;;;;;;39.17;16.17;;;17.00;99.90;;;;;;5115771;28;20207;-65
2021/07/17 05:02:53;;;;;;;34.57;15.57;;;17.10;99.90;;;;;;5115794;28;20199;-64
2021/07/17 05:05:22;;;;;;;33.50;15.90;;;17.10;99.90;;;;;;5115256;28;20204;-63
2021/07/17 05:07:50;;;;;;;32.40;15.77;;;17.10;99.90;;;;;;5115459;28;20219;-64
2021/07/17 05:10:18;;;;;;;31.87;15.33;;;17.20;25.80;;;;;;5115527;28;20199;-64
2021/07/17 05:12:45;;;;;;;35.17;15.37;;;17.20;1.00;;;;;;5115655;28;20211;-64
2021/07/17 05:15:13;;;;;;;33.80;15.13;;;17.30;99.90;;;;;;5115251;28;20257;-63
2021/07/17 05:17:40;;;;;;;33.63;15.47;;;17.20;1.00;;;;;;5115207;28;20265;-63
2021/07/17 05:20:09;;;;;;;31.10;15.13;;;17.10;1.00;;;;;;5115591;28;20263;-64
2021/07/17 05:22:37;;;;;;;34.80;16.10;;;17.20;1.00;;;;;;5115253;28;20679;-64
2021/07/17 05:25:05;;;;;;;32.07;14.93;;;17.20;1.00;;;;;;5115055;28;20736;-64
2021/07/17 05:27:32;;;;;;;36.83;15.67;;;17.20;77.30;;;;;;5115144;28;20272;-64
2021/07/17 05:29:59;;;;;;;30.10;15.80;;;17.20;1.00;;;;;;5115502;28;20249;-64
2021/07/17 05:32:26;;;;;;;36.27;14.90;;;17.10;99.90;;;;;;5115017;28;20253;-64
2021/07/17 05:34:52;;;;;;;29.83;15.43;;;17.10;99.90;;;;;;5115149;28;20622;-63
2021/07/17 05:37:19;;;;;;;30.37;13.93;;;17.10;99.90;;;;;;5114993;28;20285;-64
2021/07/17 05:39:47;;;;;;;30.70;14.43;;;17.20;99.90;;;;;;5114929;28;20691;-64
2021/07/17 05:42:13;;;;;;;26.60;13.53;;;17.30;99.90;;;;;;5114901;28;20204;-64
2021/07/17 05:44:40;;;;;;;30.23;14.20;;;17.30;99.90;;;;;;5114724;28;20208;-64
2021/07/17 05:47:07;;;;;;;30.53;12.90;;;17.30;99.90;;;;;;5114699;28;20639;-63
2021/07/17 05:49:33;;;;;;;28.63;13.70;;;17.30;89.00;;;;;;5114833;28;20269;-64
2021/07/17 05:52:00;;;;;;;31.33;14.53;;;17.40;87.60;;;;;;5114839;28;20260;-64
2021/07/17 05:54:26;;;;;;;26.90;13.03;;;17.40;1.00;;;;;;5114385;28;20235;-64
2021/07/17 05:56:54;;;;;;;29.50;14.77;;;17.40;1.00;;;;;;5114219;28;20249;-63
2021/07/17 05:59:21;;;;;;;26.27;14.57;;;17.40;99.90;;;;;;5114458;28;20204;-63
2021/07/17 06:01:47;;;;;;;25.93;12.47;;;17.30;99.90;;;;;;5114910;28;20203;-64
2021/07/17 06:04:14;;;;;;;34.67;14.43;;;17.20;99.90;;;;;;5114638;28;20203;-64
2021/07/17 06:06:41;;;;;;;26.30;13.23;;;17.20;99.90;;;;;;5114515;28;20203;-64
2021/07/17 06:09:08;;;;;;;30.70;14.73;;;17.10;1.00;;;;;;5114484;28;20275;-65
2021/07/17 06:11:35;;;;;;;28.40;13.43;;;17.20;1.00;;;;;;5114337;28;20238;-65
2021/07/17 06:14:03;;;;;;;36.17;14.53;;;17.20;99.90;;;;;;5114156;28;20626;-63
2021/07/17 06:16:29;;;;;;;30.47;14.23;;;17.20;99.90;;;;;;5114399;28;20639;-62
2021/07/17 06:18:56;;;;;;;31.40;14.17;;;17.20;99.90;;;;;;5114193;28;20710;-64
2021/07/17 06:21:22;;;;;;;31.63;14.63;;;17.10;99.90;;;;;;5114199;28;20207;-64
2021/07/17 06:23:49;;;;;;;30.00;14.70;;;17.10;1.00;;;;;;5114004;28;20260;-65
2021/07/17 06:26:16;;;;;;;30.30;14.20;;;17.10;99.90;;;;;;5113994;28;20207;-63
2021/07/17 06:28:42;;;;;;;28.17;13.67;;;17.20;99.90;;;;;;5113924;28;20223;-64
2021/07/17 06:31:10;;;;;;;30.43;15.07;;;17.10;1.00;;;;;;5114269;28;20622;-64
2021/07/17 06:33:37;;;;;;;34.43;15.20;;;17.10;1.00;;;;;;5114003;28;20203;-66
2021/07/17 06:36:04;;;;;;;36.30;15.93;;;17.00;48.80;;;;;;5114182;28;20695;-66
2021/07/17 06:38:31;;;;;;;36.40;15.07;;;16.90;1.00;;;;;;5113642;28;20234;-63
2021/07/17 06:40:57;;;;;;;34.30;15.07;;;17.00;1.00;;;;;;5113934;28;20199;-64
2021/07/17 06:43:24;;;;;;;32.53;14.90;;;17.00;99.90;;;;;;5113775;28;20211;-63
2021/07/17 06:45:50;;;;;;;29.67;14.67;;;17.00;1.00;;;;;;5114080;28;20208;-64
2021/07/17 06:48:19;;;;;;;32.57;15.07;;;16.90;99.90;;;;;;5113518;28;20227;-64
2021/07/17 06:50:47;;;;;;;38.03;15.60;;;17.00;1.00;;;;;;5113670;28;20272;-64
2021/07/17 06:53:14;;;;;;;27.23;13.20;;;17.10;99.90;;;;;;5113377;28;20294;-65
2021/07/17 06:55:40;;;;;;;30.33;13.53;;;17.30;99.90;;;;;;5113280;28;20249;-63
2021/07/17 06:58:08;;;;;;;29.33;13.23;;;17.40;99.90;;;;;;5113637;28;20220;-64
2021/07/17 07:00:35;;;;;;;29.77;13.27;;;17.40;1.00;;;;;;5113577;28;20199;-64
2021/07/17 07:03:02;;;;;;;29.50;14.10;;;17.40;99.90;;;;;;5113605;28;20210;-65
2021/07/17 07:05:30;;;;;;;29.73;12.83;;;17.50;82.10;;;;;;5113518;28;20260;-66
2021/07/17 07:07:57;;;;;;;30.77;12.87;;;17.60;1.00;;;;;;5112846;28;20232;-65
2021/07/17 07:10:24;;;;;;;28.37;13.50;;;17.60;99.90;;;;;;5112814;28;20231;-65
2021/07/17 07:12:51;;;;;;;24.73;12.77;;;17.50;1.00;;;;;;5113478;28;20250;-65
2021/07/17 07:15:18;;;;;;;25.73;12.33;;;17.50;1.00;;;;;;5113057;28;20199;-65
2021/07/17 07:17:45;;;;;;;23.63;12.67;;;17.50;1.00;;;;;;5113187;28;20640;-66
2021/07/17 07:20:15;;;;;;;27.60;12.93;;;17.50;99.90;;;;;;5113416;28;20253;-66
2021/07/17 07:22:43;;;;;;;31.57;12.83;;;17.60;1.00;;;;;;5113383;28;20211;-65
2021/07/17 07:25:11;;;;;;;28.33;12.57;;;17.70;1.00;;;;;;5113736;28;20256;-66
2021/07/17 07:27:37;;;;;;;29.43;12.73;;;17.80;99.90;;;;;;5113114;28;20245;-63
2021/07/17 07:30:06;;;;;;;28.60;12.03;;;17.70;1.00;;;;;;5112992;28;20245;-63
2021/07/17 07:32:32;;;;;;;26.10;12.87;;;17.70;1.00;;;;;;5112821;28;20729;-65
2021/07/17 07:34:59;;;;;;;30.83;11.93;;;17.70;99.90;;;;;;5105200;28;20256;-66
2021/07/17 07:37:27;;;;;;;27.83;11.53;;;17.80;99.90;;;;;;5091731;28;20289;-64
2021/07/17 07:39:55;;;;;;;34.27;11.97;;;17.90;99.90;;;;;;5092494;28;20200;-64
2021/07/17 07:42:23;;;;;;;28.20;11.90;;;17.90;1.00;;;;;;5092497;28;20237;-65
2021/07/17 07:44:49;;;;;;;27.03;11.83;;;18.00;99.90;;;;;;5091832;28;20273;-63
2021/07/17 07:47:16;;;;;;;32.43;12.00;;;18.00;99.90;;;;;;5089194;28;20961;-62
2021/07/17 07:49:43;;;;;;;27.70;12.00;;;18.00;99.90;;;;;;5091025;28;20220;-62
2021/07/17 07:52:10;;;;;;;29.63;11.83;;;18.10;96.30;;;;;;5092108;28;20230;-65
2021/07/17 07:54:37;;;;;;;27.93;12.00;;;18.10;99.90;;;;;;5091761;28;20243;-65
2021/07/17 07:57:06;;;;;;;24.00;12.43;;;18.10;99.90;;;;;;5091847;28;20221;-67
2021/07/17 07:59:33;;;;;;;25.97;12.67;;;18.10;99.90;;;;;;5091551;28;20196;-67
2021/07/17 08:02:00;;;;;;;27.23;12.17;;;18.10;99.90;;;;;;5091835;28;20208;-67
2021/07/17 08:04:26;;;;;;;27.33;11.27;;;17.90;99.90;;;;;;5091324;28;20204;-66
2021/07/17 08:06:53;;;;;;;29.83;12.60;;;17.90;99.90;;;;;;5091612;28;20664;-67
2021/07/17 08:09:19;;;;;;;29.87;12.70;;;17.90;99.90;;;;;;5091484;28;20269;-67
2021/07/17 08:11:46;;;;;;;27.93;11.90;;;17.80;99.90;;;;;;5091609;28;20200;-65
2021/07/17 08:14:14;;;;;;;30.67;11.87;;;18.00;99.90;;;;;;5091809;28;20257;-64
2021/07/17 08:16:41;;;;;;;29.47;12.13;;;18.10;99.90;;;;;;5091476;28;20208;-64
2021/07/17 08:19:07;;;;;;;29.90;11.80;;;18.20;99.90;;;;;;5091121;28;20300;-64
2021/07/17 08:21:34;;;;;;;31.40;11.77;;;18.30;42.10;;;;;;5095991;28;20208;-65
2021/07/17 08:24:02;;;;;;;25.27;10.67;;;18.40;93.50;;;;;;5095755;28;20563;-64
2021/07/17 08:26:29;;;;;;;23.40;10.80;;;18.50;1.00;;;;;;5095560;28;20291;-65
2021/07/17 08:28:56;;;;;;;30.73;11.83;;;18.50;1.00;;;;;;5095337;28;20250;-64
2021/07/17 08:31:24;;;;;;;28.73;11.47;;;18.40;99.10;;;;;;5095531;28;20238;-65
2021/07/17 08:33:50;;;;;;;29.37;10.40;;;18.40;99.90;;;;;;5095268;28;20700;-64
2021/07/17 08:36:17;;;;;;;26.63;10.33;;;18.60;99.90;;;;;;5095493;28;20265;-65
2021/07/17 08:38:44;;;;;;;25.97;10.37;;;18.80;1.00;;;;;;5095078;28;20712;-64
2021/07/17 08:41:11;;;;;;;24.20;10.17;;;18.80;1.00;;;;;;5095404;28;20204;-65
2021/07/17 08:43:39;;;;;;;19.37;9.57;;;18.90;1.00;;;;;;5095389;28;20208;-65
2021/07/17 08:46:06;;;;;;;31.87;10.73;;;18.90;1.00;;;;;;5095211;28;20204;-64
2021/07/17 08:48:34;;;;;;;22.10;9.23;;;18.90;1.00;;;;;;5095309;28;20232;-64
2021/07/17 08:51:02;;;;;;;23.10;10.03;;;18.80;99.90;;;;;;5095238;28;20227;-63
2021/07/17 08:53:30;;;;;;;25.30;9.77;;;18.90;99.90;;;;;;5095262;28;20254;-62
2021/07/17 08:55:56;;;;;;;21.83;9.47;;;19.00;99.90;;;;;;5095323;28;20274;-61
2021/07/17 08:58:23;;;;;;;18.03;8.70;;;19.20;99.90;;;;;;5094849;28;20231;-59
2021/07/17 09:00:50;;;;;;;22.50;10.57;;;19.40;99.90;;;;;;5095090;28;20204;-64
2021/07/17 09:03:18;;;;;;;21.60;8.97;;;19.60;99.90;;;;;;5095026;28;20208;-63
2021/07/17 09:05:49;;;;;;;21.00;8.60;;;19.90;99.90;;;;;;5095425;28;20273;-62
2021/07/17 09:08:18;;;;;;;19.33;8.80;;;19.90;95.80;;;;;;5094569;28;20225;-61
2021/07/17 09:10:47;;;;;;;20.63;8.23;;;19.80;99.90;;;;;;5094928;28;20281;-63
2021/07/17 09:13:19;;;;;;;16.77;8.57;;;19.80;38.10;;;;;;5094607;28;20257;-66
2021/07/17 09:16:03;;;;;;;19.33;8.83;;;19.90;94.10;;;;;;5094867;28;20563;-65
2021/07/17 09:18:36;;;;;;;16.60;8.33;;;19.90;18.00;;;;;;5094321;28;20297;-67
2021/07/17 09:21:08;;;;;;;21.53;8.37;;;19.90;55.70;;;;;;5094788;28;20204;-64
2021/07/17 09:23:38;;;;;;;16.37;7.93;;;20.00;99.90;;;;;;5093939;28;20257;-67
2021/07/17 09:26:13;;;;;;;19.37;8.60;;;20.20;10.40;;;;;;5094237;28;20668;-66
2021/07/17 09:28:41;;;;;;;18.07;8.60;;;20.30;1.00;;;;;;5094428;28;20224;-66
2021/07/17 09:31:08;;;;;;;20.30;8.33;;;20.40;10.60;;;;;;5093785;28;20235;-66
2021/07/17 09:33:36;;;;;;;21.20;7.97;;;20.60;90.40;;;;;;5094419;28;20208;-66
2021/07/17 09:36:05;;;;;;;20.27;7.50;;;20.80;1.00;;;;;;5094303;28;20208;-67
2021/07/17 09:38:33;;;;;;;12.40;7.43;;;20.90;1.00;;;;;;5093968;28;20319;-65
2021/07/17 09:41:03;;;;;;;15.43;6.80;;;20.90;1.00;;;;;;5094257;28;20691;-66
2021/07/17 09:43:32;;;;;;;14.27;6.37;;;21.10;1.00;;;;;;5094169;28;20204;-66
2021/07/17 09:45:59;;;;;;;16.33;8.47;;;21.30;1.00;;;;;;5094056;28;20208;-66
2021/07/17 09:48:28;;;;;;;16.70;7.30;;;21.40;1.00;;;;;;5093812;28;20273;-68
2021/07/17 09:50:56;;;;;;;13.80;6.80;;;21.60;1.00;;;;;;5094287;28;20311;-65
2021/07/17 09:53:45;;;;;;;17.47;6.93;;;21.70;1.00;;;;;;5094210;28;20205;-66
2021/07/17 09:56:13;;;;;;;15.40;6.80;;;21.60;1.00;;;;;;5093986;28;20679;-66
2021/07/17 09:58:41;;;;;;;14.47;6.80;;;21.70;1.00;;;;;;5093736;28;20247;-64
2021/07/17 10:01:22;;;;;;;18.57;7.53;;;21.90;1.00;;;;;;5093837;28;20691;-66
2021/07/17 10:03:51;;;;;;;19.27;6.90;;;22.20;1.00;;;;;;5093917;28;20634;-64
2021/07/17 10:06:43;;;;;;;16.17;6.13;;;22.50;1.00;;;;;;5094195;28;20208;-67
2021/07/17 10:09:29;;;;;;;17.97;6.03;;;22.50;1.00;;;;;;5083609;28;20684;-62
2021/07/17 10:11:59;;;;;;;16.73;5.90;;;22.50;1.00;;;;;;5093794;28;20266;-58
2021/07/17 10:14:28;;;;;;;15.40;5.87;;;22.60;99.90;;;;;;5094156;28;20291;-59
2021/07/17 10:16:58;;;;;;;17.70;5.83;;;22.60;99.90;;;;;;5094135;28;20204;-55
2021/07/17 10:19:26;;;;;;;13.70;6.20;;;22.50;99.90;;;;;;5093442;28;20205;-66
2021/07/17 10:21:54;;;;;;;12.07;5.30;;;22.60;99.90;;;;;;5092428;28;20261;-65
2021/07/17 10:24:21;;;;;;;8.90;5.07;;;22.60;99.90;;;;;;5093710;28;20211;-65
2021/07/17 10:26:51;;;;;;;13.63;5.70;;;22.30;99.90;;;;;;5093475;28;20249;-64
2021/07/17 10:29:18;;;;;;;10.13;4.73;;;22.40;99.90;;;;;;5093721;28;20558;-61
2021/07/17 10:31:46;;;;;;;11.27;4.60;;;22.70;1.00;;;;;;5093430;28;20211;-56
2021/07/17 10:34:13;;;;;;;13.53;5.03;;;22.80;99.90;;;;;;5093837;28;20208;-60
2021/07/17 10:36:47;;;;;;;10.50;4.13;;;22.80;99.90;;;;;;5093341;28;20204;-60
2021/07/17 10:39:15;;;;;;;11.23;3.90;;;23.10;99.90;;;;;;5094446;28;20208;-62
2021/07/17 10:41:45;;;;;;;8.97;4.17;;;22.70;99.90;;;;;;5094833;28;20226;-60
2021/07/17 10:44:13;;;;;;;10.37;4.13;;;22.60;99.90;;;;;;5091941;28;20223;-59
2021/07/17 10:46:41;;;;;;;10.23;3.90;;;22.90;99.90;;;;;;5096036;28;20210;-62
2021/07/17 10:49:10;;;;;;;10.53;3.70;;;23.20;99.90;;;;;;5095753;28;20204;-62
2021/07/17 10:51:38;;;;;;;9.57;3.70;;;23.40;99.90;;;;;;5099723;28;20228;-61
2021/07/17 10:54:07;;;;;;;10.97;3.70;;;23.50;99.90;;;;;;5092789;28;20226;-61
2021/07/17 10:56:42;;;;;;;12.07;3.43;;;23.40;99.90;;;;;;5092799;28;20208;-60
2021/07/17 10:59:42;;;;;;;12.03;3.30;;;23.60;99.90;;;;;;5093221;28;20768;-60
2021/07/17 11:02:10;;;;;;;12.40;4.00;;;23.70;99.90;;;;;;5093033;28;20623;-60
2021/07/17 11:04:49;;;;;;;5.40;2.90;;;23.70;99.90;;;;;;5093088;28;20208;-61
2021/07/17 11:07:40;;;;;;;6.73;3.03;;;23.80;99.90;;;;;;5092859;28;20224;-61
2021/07/17 11:10:15;;;;;;;6.93;2.80;;;23.60;99.90;;;;;;5093182;28;20227;-61
2021/07/17 11:12:48;;;;;;;10.27;3.00;;;23.60;99.90;;;;;;5092824;28;20684;-60
2021/07/17 11:15:51;;;;;;;6.27;3.20;;;23.70;99.90;;;;;;5092912;28;20204;-61
2021/07/17 11:18:26;;;;;;;13.00;3.60;;;23.90;99.90;;;;;;5092960;28;20228;-63
2021/07/17 11:21:00;;;;;;;7.40;2.83;;;23.90;99.90;;;;;;5092935;28;20703;-60
2021/07/17 11:23:44;;;;;;;7.67;2.70;;;23.90;99.90;;;;;;5092653;28;20262;-61
2021/07/17 11:26:18;;;;;;;7.97;3.00;;;24.10;99.90;;;;;;5092359;28;20210;-61
2021/07/17 11:29:07;;;;;;;9.33;3.30;;;24.30;99.90;;;;;;5092430;28;20879;-61
2021/07/17 11:31:50;;;;;;;6.27;3.17;;;24.50;99.90;;;;;;5092714;28;20228;-60
2021/07/17 11:34:44;;;;;;;10.10;2.73;;;24.50;99.90;;;;;;5092540;28;20292;-61
2021/07/17 11:37:23;;;;;;;7.40;2.60;;;24.70;99.90;;;;;;5092327;28;20290;-61
2021/07/17 11:39:52;;;;;;;7.17;2.80;;;24.80;99.90;;;;;;5092607;28;20204;-61
2021/07/17 11:42:20;;;;;;;6.27;2.77;;;24.90;99.90;;;;;;5092461;28;20212;-60
2021/07/17 11:44:48;;;;;;;7.70;2.77;;;25.00;99.90;;;;;;5092123;28;20208;-61
2021/07/17 11:47:18;;;;;;;7.90;2.60;;;24.90;99.90;;;;;;5092238;28;20224;-63
2021/07/17 11:49:46;;;;;;;5.93;2.40;;;24.90;99.90;;;;;;5092542;28;20204;-61
2021/07/17 11:52:16;;;;;;;7.10;2.63;;;24.80;99.90;;;;;;5092515;28;20577;-61
2021/07/17 11:54:45;;;;;;;6.10;2.30;;;24.40;99.90;;;;;;5091861;28;20200;-60
2021/07/17 11:57:18;;;;;;;7.73;2.73;;;24.40;99.90;;;;;;5092137;28;20224;-61
2021/07/17 11:59:48;;;;;;;5.80;2.23;;;24.30;99.90;;;;;;5092057;28;20200;-60
2021/07/17 12:02:17;;;;;;;6.37;2.33;;;24.40;99.90;;;;;;5092307;28;20200;-61
2021/07/17 12:04:47;;;;;;;5.63;2.17;;;24.50;99.90;;;;;;5092290;28;20204;-61
2021/07/17 12:07:16;;;;;;;9.20;2.73;;;24.40;99.90;;;;;;5092211;28;20269;-61
2021/07/17 12:09:46;;;;;;;5.27;2.30;;;24.40;99.90;;;;;;5092384;28;20253;-61
2021/07/17 12:12:18;;;;;;;4.97;2.13;;;24.60;99.90;;;;;;5091934;28;20223;-60
2021/07/17 12:14:47;;;;;;;8.50;2.80;;;24.50;99.90;;;;;;5092124;28;20269;-60
2021/07/17 12:17:22;;;;;;;8.07;2.43;;;24.60;99.90;;;;;;5092177;28;20220;-61
2021/07/17 12:20:07;;;;;;;9.10;2.30;;;24.80;99.90;;;;;;5092301;28;20208;-63
2021/07/17 12:22:35;;;;;;;8.03;2.77;;;25.00;99.90;;;;;;5088696;28;20249;-64
2021/07/17 12:25:04;;;;;;;6.40;2.53;;;25.00;99.90;;;;;;5091862;28;20623;-64
2021/07/17 12:27:31;;;;;;;8.70;2.80;;;25.10;99.90;;;;;;5092275;28;20289;-64
2021/07/17 12:29:58;;;;;;;10.33;2.53;;;25.00;99.90;;;;;;5091462;28;20219;-60
2021/07/17 12:32:26;;;;;;;5.30;2.07;;;25.20;99.90;;;;;;5091537;28;20204;-60
2021/07/17 12:34:56;;;;;;;5.93;1.90;;;25.30;99.90;;;;;;5091158;28;20269;-59
2021/07/17 12:37:27;;;;;;;8.23;2.73;;;25.30;99.90;;;;;;5091167;28;20232;-61
2021/07/17 12:40:06;;;;;;;8.93;2.80;;;25.20;99.90;;;;;;5091679;28;20208;-63